This is the latest recevied weather packets stored in our database for station/object KO4DYK. If no packets are shown the sender has not sent any weather packets the latest 10 day(s).
| Time | Temp. | Humidity | Pressure | Rain* | Wind** | Luminosity | Snow |
|---|---|---|---|---|---|---|---|
| 1788286618 | 37.78° C | 50% | 1019.6 hPa | 0 mm | - | 216 W/m² | - |
| 1788286317 | 36.67° C | 52% | 1019.6 hPa | 0 mm | - | 758 W/m² | - |
| 1788286012 | 36.11° C | 57% | 1019.8 hPa | 0 mm | - | 251 W/m² | - |
| 1788285711 | 35.56° C | 57% | 1019.8 hPa | 0 mm | - | 206 W/m² | - |
| 1788285405 | 36.67° C | 55% | 1020 hPa | 0 mm | - | 236 W/m² | - |
| 1788285105 | 35.56° C | 56% | 1020 hPa | 0 mm | - | 686 W/m² | - |
| 1788284800 | 35.56° C | 64% | 1020 hPa | 0 mm | - | 737 W/m² | - |
| 1788284496 | 34.44° C | 61% | 1020.1 hPa | 0 mm | - | 186 W/m² | - |
| 1788284191 | 33.89° C | 67% | 1020.2 hPa | 0 mm | - | 241 W/m² | - |
| 1788283886 | 34.44° C | 66% | 1020.4 hPa | 0 mm | - | 322 W/m² | - |
| 1788283593 | 34.44° C | 64% | 1020.4 hPa | 0 mm | - | 196 W/m² | - |
| 1788283280 | 35° C | 63% | 1020.3 hPa | 0 mm | - | 155 W/m² | - |
| 1788282980 | 35° C | 61% | 1020.4 hPa | 0 mm | - | 202 W/m² | - |
| 1788282674 | 36.11° C | 55% | 1020.7 hPa | 0 mm | - | 159 W/m² | - |
| 1788282373 | 36.11° C | 54% | 1020.5 hPa | 0 mm | - | 183 W/m² | - |
| 1788282068 | 35° C | 56% | 1020.6 hPa | 0 mm | - | 669 W/m² | - |
| 1788281767 | 34.44° C | 57% | 1020.7 hPa | 0 mm | - | 713 W/m² | - |
| 1788281463 | 33.33° C | 62% | 1020.7 hPa | 0 mm | - | 750 W/m² | - |
| 1788281158 | 33.33° C | 62% | 1020.9 hPa | 0 mm | - | 525 W/m² | - |
| 1788280853 | 33.89° C | 61% | 1020.9 hPa | 0 mm | - | 186 W/m² | - |
| 1788280548 | 33.89° C | 61% | 1020.9 hPa | 0 mm | - | 252 W/m² | - |
| 1788280247 | 35° C | 57% | 1021 hPa | 0 mm | - | 217 W/m² | - |
| 1788279943 | 35.56° C | 56% | 1020.9 hPa | 0 mm | - | 712 W/m² | - |
| 1788279642 | 36.11° C | 55% | 1021 hPa | 0 mm | - | 210 W/m² | - |
| 1788279341 | 35.56° C | 55% | 1021 hPa | 0 mm | - | 222 W/m² | - |
* Rain latest hour (hover to see other rain measurements)
** Current wind speed in m/s (hover to see current wind gust speed)